Jrs Merkur — V2FD8 — position and weather

sailwx.info

Track history (hours):
 
Tides and Currents Weather Stations Pressure Air Temp Water Temp Dewpoint Dewpoint Depression Visibility Wind Speed Wind Dir Waves Ship Positions

Jrs Merkur

Last reported at 2015-Jun-30 03:09 UTC. Time now 2015-Jul-03 12:25 UTC.
Position N 57°14' E 017°38'.

Length 107 m; draft 5.3 m.

Type: Cargo ship. MMSI: 305644000.

Date/timePositionNaut miles runAvg speedWind from/ knotsBaromVisibWave heightAir tempDewpointWater temp
2015-Jun-30 03:09N 57°14' E 017°38'11010.4
2015-Jun-29 16:33N 55°44' E 015°44'1111.4
2015-Jun-29 15:33N 55°39' E 015°26'1111.3
2015-Jun-29 14:33N 55°33' E 015°09'1111.4
2015-Jun-29 13:33N 55°28' E 014°51'1111.1
2015-Jun-29 12:32N 55°21' E 014°35'1111.3
2015-Jun-29 11:33N 55°12' E 014°23'1110.8
2015-Jun-29 10:33N 55°10' E 014°04'2211.1
2015-Jun-29 08:33N 55°12' E 013°26'1111.3
2015-Jun-29 07:33N 55°14' E 013°06'1111.4
2015-Jun-29 06:33N 55°16' E 012°46'9 9.0
2015-Jun-29 05:33N 55°24' E 012°38'1010.4
2015-Jun-29 04:33N 55°34' E 012°42'1010.0
2015-Jun-29 03:33N 55°44' E 012°41'1010.2
2015-Jun-29 02:33N 55°54' E 012°38'1010.1
2015-Jun-29 01:33N 56°04' E 012°37'1010.0
2015-Jun-29 00:33N 56°10' E 012°23'1111.4
2015-Jun-28 23:33N 56°17' E 012°06'1110.6
2015-Jun-28 22:30N 56°27' E 011°59'1111.2
2015-Jun-28 21:33N 56°38' E 011°55'1111.3
2015-Jun-28 20:33N 56°48' E 011°49'1110.7
2015-Jun-28 19:33N 56°59' E 011°43'1110.9
2015-Jun-28 18:33N 57°09' E 011°36'1111.2
2015-Jun-28 17:33N 57°19' E 011°29'1110.7
2015-Jun-28 16:33N 57°29' E 011°20'1111.4
2015-Jun-28 15:33N 57°34' E 011°02'1311.2
2015-Jun-28 14:26N 57°40' E 010°41'4 0.9
2015-Jun-28 10:07N 57°44' E 010°43'3 6.0
2015-Jun-28 09:33N 57°47' E 010°40'26911.1
2015-Jun-27 09:21N 54°22' E 005°25'911.1
2015-Jun-27 08:33N 54°15' E 005°17'1111.0
2015-Jun-27 07:33N 54°05' E 005°08'1111.0
2015-Jun-27 06:33N 53°56' E 004°59'1110.8
2015-Jun-27 05:32N 53°45' E 004°52'1111.5
2015-Jun-27 04:33N 53°34' E 004°49'2412.0
2015-Jun-27 02:32N 53°12' E 004°33'1212.3
2015-Jun-27 01:33N 53°02' E 004°22'1212.4
2015-Jun-27 00:33N 52°51' E 004°14'1312.8
2015-Jun-26 23:33N 52°41' E 004°00'1312.7
2015-Jun-26 22:33N 52°31' E 003°46'2612.8
2015-Jun-26 20:33N 52°13' E 003°16'1412.5
2015-Jun-26 19:27N 52°03' E 003°01'2411.6
2015-Jun-26 17:24N 51°45' E 002°36'911.0
2015-Jun-26 16:32N 51°37' E 002°27'1110.7
2015-Jun-26 15:33N 51°29' E 002°16'1110.6
2015-Jun-26 14:33N 51°20' E 002°08'1010.3
2015-Jun-26 13:33N 51°12' E 001°58'1110.6
2015-Jun-26 12:33N 51°05' E 001°45'1310.8
2015-Jun-26 11:22N 50°56' E 001°31'911.5
2015-Jun-26 10:33N 50°47' E 001°25'1111.3
2015-Jun-26 09:33N 50°38' E 001°15'4711.6
2015-Jun-26 05:31N 50°20' E 000°08'5213.1
2015-Jun-26 01:32N 50°06' W 001°11'1312.9
2015-Jun-26 00:33N 50°02' W 001°30'1212.3
2015-Jun-25 23:32N 49°59' W 001°49'1111.3
2015-Jun-25 22:33N 49°57' W 002°05'33 9.7
2015-Jun-25 19:09N 49°43' W 002°52'711.1
2015-Jun-25 18:33N 49°36' W 002°50'61 8.5
2015-Jun-25 11:20N 48°43' W 002°05'0 0.0
2015-Jun-25 08:17N 48°43' W 002°05'0 0.1
2015-Jun-25 06:29N 48°43' W 002°06'0 0.0
2015-Jun-25 05:26N 48°43' W 002°06'0 0.0
2015-Jun-25 04:26N 48°43' W 002°06'0 0.0
2015-Jun-25 02:20N 48°43' W 002°05'0 0.1
2015-Jun-25 01:20N 48°43' W 002°05'  
2015-Jun-22 04:14N 48°43' W 002°06'0 0.0
2015-Jun-20 05:32N 48°43' W 002°05'  
Track history (hours):
 
Tides and Currents Weather Stations Pressure Air Temp Water Temp Dewpoint Dewpoint Depression Visibility Wind Speed Wind Dir Waves Ship Positions

Jrs Merkur

Last reported at 2015-Jun-30 03:09 UTC. Time now 2015-Jul-03 12:25 UTC.
Position N 57°14' E 017°38'.

Length 107 m; draft 5.3 m.

Type: Cargo ship. MMSI: 305644000.

Date/timePositionNaut miles runAvg speedWind from/ knotsBaromVisibWave heightAir tempDewpointWater temp
2015-Jun-30 03:09N 57°14' E 017°38'11010.4
2015-Jun-29 16:33N 55°44' E 015°44'1111.4
2015-Jun-29 15:33N 55°39' E 015°26'1111.3
2015-Jun-29 14:33N 55°33' E 015°09'1111.4
2015-Jun-29 13:33N 55°28' E 014°51'1111.1
2015-Jun-29 12:32N 55°21' E 014°35'1111.3
2015-Jun-29 11:33N 55°12' E 014°23'1110.8
2015-Jun-29 10:33N 55°10' E 014°04'2211.1
2015-Jun-29 08:33N 55°12' E 013°26'1111.3
2015-Jun-29 07:33N 55°14' E 013°06'1111.4
2015-Jun-29 06:33N 55°16' E 012°46'9 9.0
2015-Jun-29 05:33N 55°24' E 012°38'1010.4
2015-Jun-29 04:33N 55°34' E 012°42'1010.0
2015-Jun-29 03:33N 55°44' E 012°41'1010.2
2015-Jun-29 02:33N 55°54' E 012°38'1010.1
2015-Jun-29 01:33N 56°04' E 012°37'1010.0
2015-Jun-29 00:33N 56°10' E 012°23'1111.4
2015-Jun-28 23:33N 56°17' E 012°06'1110.6
2015-Jun-28 22:30N 56°27' E 011°59'1111.2
2015-Jun-28 21:33N 56°38' E 011°55'1111.3
2015-Jun-28 20:33N 56°48' E 011°49'1110.7
2015-Jun-28 19:33N 56°59' E 011°43'1110.9
2015-Jun-28 18:33N 57°09' E 011°36'1111.2
2015-Jun-28 17:33N 57°19' E 011°29'1110.7
2015-Jun-28 16:33N 57°29' E 011°20'1111.4
2015-Jun-28 15:33N 57°34' E 011°02'1311.2
2015-Jun-28 14:26N 57°40' E 010°41'4 0.9
2015-Jun-28 10:07N 57°44' E 010°43'3 6.0
2015-Jun-28 09:33N 57°47' E 010°40'26911.1
2015-Jun-27 09:21N 54°22' E 005°25'911.1
2015-Jun-27 08:33N 54°15' E 005°17'1111.0
2015-Jun-27 07:33N 54°05' E 005°08'1111.0
2015-Jun-27 06:33N 53°56' E 004°59'1110.8
2015-Jun-27 05:32N 53°45' E 004°52'1111.5
2015-Jun-27 04:33N 53°34' E 004°49'2412.0
2015-Jun-27 02:32N 53°12' E 004°33'1212.3
2015-Jun-27 01:33N 53°02' E 004°22'1212.4
2015-Jun-27 00:33N 52°51' E 004°14'1312.8
2015-Jun-26 23:33N 52°41' E 004°00'1312.7
2015-Jun-26 22:33N 52°31' E 003°46'2612.8
2015-Jun-26 20:33N 52°13' E 003°16'1412.5
2015-Jun-26 19:27N 52°03' E 003°01'2411.6
2015-Jun-26 17:24N 51°45' E 002°36'911.0
2015-Jun-26 16:32N 51°37' E 002°27'1110.7
2015-Jun-26 15:33N 51°29' E 002°16'1110.6
2015-Jun-26 14:33N 51°20' E 002°08'1010.3
2015-Jun-26 13:33N 51°12' E 001°58'1110.6
2015-Jun-26 12:33N 51°05' E 001°45'1310.8
2015-Jun-26 11:22N 50°56' E 001°31'911.5
2015-Jun-26 10:33N 50°47' E 001°25'1111.3
2015-Jun-26 09:33N 50°38' E 001°15'4711.6
2015-Jun-26 05:31N 50°20' E 000°08'5213.1
2015-Jun-26 01:32N 50°06' W 001°11'1312.9
2015-Jun-26 00:33N 50°02' W 001°30'1212.3
2015-Jun-25 23:32N 49°59' W 001°49'1111.3
2015-Jun-25 22:33N 49°57' W 002°05'33 9.7
2015-Jun-25 19:09N 49°43' W 002°52'711.1
2015-Jun-25 18:33N 49°36' W 002°50'61 8.5
2015-Jun-25 11:20N 48°43' W 002°05'0 0.0
2015-Jun-25 08:17N 48°43' W 002°05'0 0.1
2015-Jun-25 06:29N 48°43' W 002°06'0 0.0
2015-Jun-25 05:26N 48°43' W 002°06'0 0.0
2015-Jun-25 04:26N 48°43' W 002°06'0 0.0
2015-Jun-25 02:20N 48°43' W 002°05'0 0.1
2015-Jun-25 01:20N 48°43' W 002°05'  
2015-Jun-22 04:14N 48°43' W 002°06'0 0.0
2015-Jun-20 05:32N 48°43' W 002°05'  

Dump ship's entire track history